createdAt,value
2018-11-13T00:00:59.997Z,12.70
2018-11-13T00:03:28.119Z,13.77
2018-11-13T00:05:56.212Z,13.93
2018-11-13T00:08:24.375Z,12.43
2018-11-13T00:10:52.498Z,13.00
2018-11-13T00:13:20.613Z,12.40
2018-11-13T00:15:48.794Z,12.13
2018-11-13T00:18:16.918Z,12.60
2018-11-13T00:20:45.052Z,12.13
2018-11-13T00:23:13.155Z,12.90
2018-11-13T00:25:41.403Z,13.03
2018-11-13T00:28:09.571Z,13.03
2018-11-13T00:30:37.687Z,12.90
2018-11-13T00:33:05.791Z,12.23
2018-11-13T00:35:33.909Z,12.83
2018-11-13T00:38:02.011Z,12.70
2018-11-13T00:40:30.130Z,12.73
2018-11-13T00:42:58.302Z,13.10
2018-11-13T00:45:26.560Z,13.43
2018-11-13T00:47:54.648Z,14.40
2018-11-13T00:50:22.759Z,13.97
2018-11-13T00:52:50.892Z,13.67
2018-11-13T00:55:19.183Z,13.03
2018-11-13T00:57:48.237Z,14.03
2018-11-13T01:00:17.799Z,13.87
2018-11-13T01:02:46.176Z,14.57
2018-11-13T01:05:15.592Z,13.80
2018-11-13T01:07:45.000Z,14.73
2018-11-13T01:10:13.938Z,13.60
2018-11-13T01:12:42.959Z,14.33
2018-11-13T01:15:12.592Z,15.67
2018-11-13T01:17:41.147Z,15.60
2018-11-13T01:20:09.506Z,15.90
2018-11-13T01:22:37.680Z,15.83
2018-11-13T01:25:06.415Z,15.67
2018-11-13T01:27:34.667Z,16.50
2018-11-13T01:30:02.806Z,17.20
2018-11-13T01:32:30.912Z,17.07
2018-11-13T01:34:59.056Z,17.17
2018-11-13T01:37:27.139Z,16.53
2018-11-13T01:39:55.314Z,18.00
2018-11-13T01:42:23.909Z,17.57
2018-11-13T01:44:52.079Z,19.20
2018-11-13T01:47:20.252Z,18.90
2018-11-13T01:49:48.375Z,18.13
2018-11-13T01:52:16.636Z,18.20
2018-11-13T01:54:44.751Z,18.97
2018-11-13T01:57:13.437Z,19.70
2018-11-13T01:59:41.066Z,19.10
2018-11-13T02:02:09.163Z,20.10
2018-11-13T02:04:37.271Z,20.17
2018-11-13T02:07:05.408Z,21.10
2018-11-13T02:09:33.576Z,21.53
2018-11-13T02:12:01.717Z,20.63
2018-11-13T02:14:29.835Z,21.33
2018-11-13T02:16:57.968Z,21.80
2018-11-13T02:19:26.066Z,22.20
2018-11-13T02:21:54.203Z,21.40
2018-11-13T02:24:22.313Z,22.60
2018-11-13T02:26:50.450Z,21.30
2018-11-13T02:29:18.551Z,23.23
2018-11-13T02:31:46.663Z,22.00
2018-11-13T02:34:14.791Z,23.57
2018-11-13T02:36:42.888Z,22.47
2018-11-13T02:39:11.350Z,23.03
2018-11-13T02:41:39.915Z,22.97
2018-11-13T02:44:08.408Z,22.90
2018-11-13T02:46:36.816Z,23.30
2018-11-13T02:49:04.994Z,23.60
2018-11-13T02:51:33.147Z,23.27
2018-11-13T02:54:01.323Z,23.03
2018-11-13T02:56:29.480Z,24.87
2018-11-13T02:58:57.622Z,23.90
2018-11-13T03:01:25.732Z,24.73
2018-11-13T03:03:53.879Z,25.20
2018-11-13T03:06:21.982Z,22.83
2018-11-13T03:08:50.107Z,22.80
2018-11-13T03:11:18.199Z,24.63
2018-11-13T03:13:46.414Z,24.53
2018-11-13T03:16:14.578Z,24.37
2018-11-13T03:18:42.711Z,25.37
2018-11-13T03:21:10.823Z,25.03
2018-11-13T03:23:38.967Z,25.73
2018-11-13T03:26:07.489Z,25.93
2018-11-13T03:28:35.627Z,25.27
2018-11-13T03:31:03.741Z,26.27
2018-11-13T03:33:31.835Z,27.23
2018-11-13T03:35:59.956Z,25.57
2018-11-13T03:38:28.109Z,27.30
2018-11-13T03:40:56.243Z,27.77
2018-11-13T03:43:24.339Z,26.17
2018-11-13T03:45:52.543Z,27.13
2018-11-13T03:48:20.653Z,27.07
2018-11-13T03:50:48.801Z,26.43
2018-11-13T03:53:16.890Z,26.80
2018-11-13T03:55:44.990Z,26.73
2018-11-13T03:58:13.207Z,27.30
2018-11-13T04:00:41.320Z,26.60
2018-11-13T04:03:09.448Z,26.00
2018-11-13T04:05:37.556Z,26.13
2018-11-13T04:08:05.793Z,27.67
2018-11-13T04:10:34.016Z,25.20
2018-11-13T04:13:02.105Z,26.87
2018-11-13T04:15:30.255Z,26.00
2018-11-13T04:17:58.416Z,25.83
2018-11-13T04:20:26.611Z,26.77
2018-11-13T04:22:54.718Z,26.73
2018-11-13T04:25:22.949Z,27.47
2018-11-13T04:27:51.060Z,27.70
2018-11-13T04:30:19.460Z,28.40
2018-11-13T04:32:47.639Z,26.73
2018-11-13T04:35:16.918Z,25.63
2018-11-13T04:37:45.023Z,27.17
2018-11-13T04:40:16.246Z,26.53
2018-11-13T04:42:52.149Z,26.03
2018-11-13T04:45:21.717Z,24.27
2018-11-13T04:47:50.408Z,24.50
2018-11-13T04:50:19.599Z,24.83
2018-11-13T04:52:47.875Z,26.97
2018-11-13T04:55:16.379Z,25.20
2018-11-13T04:57:45.446Z,24.27
2018-11-13T05:00:14.686Z,24.80
2018-11-13T05:02:43.712Z,25.07
2018-11-13T05:05:12.835Z,24.07
2018-11-13T05:07:41.431Z,24.80
2018-11-13T05:10:11.146Z,24.67
2018-11-13T05:12:39.944Z,23.37
2018-11-13T05:15:08.417Z,22.73
2018-11-13T05:17:36.542Z,24.10
2018-11-13T05:20:05.007Z,23.63
2018-11-13T05:22:33.123Z,23.67
2018-11-13T05:25:01.213Z,23.33
2018-11-13T05:27:29.367Z,21.73
2018-11-13T05:29:57.555Z,22.50
2018-11-13T05:32:25.650Z,21.47
2018-11-13T05:34:53.762Z,22.23
2018-11-13T05:37:21.863Z,20.80
2018-11-13T05:39:49.970Z,22.23
2018-11-13T05:42:18.109Z,22.70
2018-11-13T05:44:46.223Z,21.23
2018-11-13T05:47:14.476Z,23.23
2018-11-13T05:49:42.568Z,22.50
2018-11-13T05:52:10.660Z,21.53
2018-11-13T05:54:38.767Z,21.57
2018-11-13T05:57:06.922Z,22.03
2018-11-13T05:59:35.093Z,22.57
2018-11-13T06:02:03.254Z,21.70
2018-11-13T06:04:31.483Z,20.70
2018-11-13T06:06:59.684Z,21.50
2018-11-13T06:09:27.798Z,21.13
2018-11-13T06:11:55.929Z,21.67
2018-11-13T06:14:24.108Z,21.93
2018-11-13T06:16:52.279Z,23.03
2018-11-13T06:19:20.378Z,22.37
2018-11-13T06:21:48.565Z,22.93
2018-11-13T06:24:16.720Z,20.97
2018-11-13T06:26:44.911Z,21.97
2018-11-13T06:29:13.159Z,21.43
2018-11-13T06:31:41.316Z,23.13
2018-11-13T06:34:09.425Z,22.77
2018-11-13T06:36:37.566Z,23.47
2018-11-13T06:39:07.625Z,20.83
2018-11-13T06:41:35.874Z,21.90
2018-11-13T06:44:04.089Z,19.87
2018-11-13T06:46:32.202Z,20.60
2018-11-13T06:49:00.369Z,20.80
2018-11-13T06:51:28.471Z,21.30
2018-11-13T06:54:02.284Z,22.27
2018-11-13T06:56:30.395Z,22.30
2018-11-13T06:58:58.503Z,22.00
2018-11-13T07:01:26.620Z,21.50
2018-11-13T07:03:54.767Z,22.27
2018-11-13T07:06:22.884Z,22.17
2018-11-13T07:08:50.998Z,22.73
2018-11-13T07:11:19.158Z,20.93
2018-11-13T07:13:47.268Z,19.50
2018-11-13T07:16:15.361Z,19.07
2018-11-13T07:18:43.495Z,20.17
2018-11-13T07:21:11.580Z,18.63
2018-11-13T07:23:39.766Z,19.30
2018-11-13T07:26:08.023Z,19.57
2018-11-13T07:28:36.141Z,19.00
2018-11-13T07:31:04.380Z,15.90
2018-11-13T07:33:32.493Z,16.13
2018-11-13T07:36:00.561Z,15.43
2018-11-13T07:38:28.686Z,14.60
2018-11-13T07:40:56.915Z,13.63
2018-11-13T07:43:25.047Z,11.90
2018-11-13T07:45:53.223Z,11.00
2018-11-13T07:48:21.366Z,10.13
2018-11-13T07:50:49.450Z,9.23
2018-11-13T07:53:18.059Z,8.93
2018-11-13T07:55:46.150Z,7.30
2018-11-13T07:58:14.283Z,5.90
2018-11-13T08:00:42.376Z,5.80
2018-11-13T08:03:41.660Z,5.60
2018-11-13T08:06:09.777Z,4.10
2018-11-13T08:08:37.899Z,4.33
2018-11-13T08:11:06.177Z,4.27
2018-11-13T08:13:34.850Z,3.60
2018-11-13T08:16:02.864Z,3.60
2018-11-13T08:18:31.802Z,3.30
2018-11-13T08:20:59.829Z,3.23
2018-11-13T08:23:27.899Z,3.03
2018-11-13T08:25:56.041Z,3.13
2018-11-13T08:28:24.155Z,3.20
2018-11-13T08:30:52.203Z,3.67
2018-11-13T08:33:20.378Z,3.30
2018-11-13T08:35:48.535Z,3.13
2018-11-13T08:38:16.626Z,3.57
2018-11-13T08:40:44.780Z,3.27
2018-11-13T08:43:12.860Z,3.53
2018-11-13T08:45:41.064Z,3.17
2018-11-13T08:48:09.154Z,3.50
2018-11-13T08:50:37.359Z,3.40
2018-11-13T08:53:05.675Z,3.40
2018-11-13T08:55:33.815Z,3.80
2018-11-13T08:58:01.911Z,3.60
2018-11-13T09:00:30.000Z,3.93
2018-11-13T09:02:58.083Z,3.60
2018-11-13T09:05:26.163Z,3.87
2018-11-13T09:07:54.247Z,3.53
2018-11-13T09:10:22.353Z,4.30
2018-11-13T09:12:50.447Z,3.57
2018-11-13T09:15:19.923Z,3.83
2018-11-13T09:17:48.022Z,3.83
2018-11-13T09:20:17.497Z,3.40
2018-11-13T09:22:45.669Z,3.43
2018-11-13T09:25:14.971Z,3.60
2018-11-13T09:27:43.083Z,3.13
2018-11-13T09:30:13.030Z,3.80
2018-11-13T09:32:41.557Z,3.10
2018-11-13T09:35:10.803Z,3.20
2018-11-13T09:37:38.986Z,3.57
2018-11-13T09:40:09.146Z,3.20
2018-11-13T09:42:37.513Z,3.20
2018-11-13T09:45:05.608Z,3.17
2018-11-13T09:47:33.824Z,3.40
2018-11-13T09:50:01.936Z,2.67
2018-11-13T09:52:30.016Z,2.90
2018-11-13T09:54:58.383Z,2.80
2018-11-13T09:57:26.483Z,2.67
2018-11-13T09:59:54.646Z,2.60
2018-11-13T10:02:23.404Z,2.73
2018-11-13T10:04:51.562Z,2.73
2018-11-13T10:07:18.898Z,2.70
2018-11-13T10:09:47.030Z,2.77
2018-11-13T10:12:15.134Z,2.70
2018-11-13T10:14:43.387Z,2.87
2018-11-13T10:17:11.588Z,3.37
2018-11-13T10:19:39.580Z,2.90
2018-11-13T10:22:07.690Z,3.43
2018-11-13T10:24:35.775Z,3.00
2018-11-13T10:27:03.989Z,3.20
2018-11-13T10:29:32.040Z,3.40
2018-11-13T10:32:00.192Z,3.80
2018-11-13T10:34:28.366Z,3.73
2018-11-13T10:36:56.458Z,3.10
2018-11-13T10:39:24.615Z,3.60
2018-11-13T10:41:52.695Z,3.60
2018-11-13T10:44:20.864Z,3.10
2018-11-13T10:46:49.978Z,3.37
2018-11-13T10:49:18.114Z,3.63
2018-11-13T10:51:46.303Z,3.23
2018-11-13T10:54:14.459Z,3.50
2018-11-13T10:56:42.652Z,4.27
2018-11-13T10:59:10.748Z,3.50
2018-11-13T11:01:44.165Z,2.97
2018-11-13T11:04:17.715Z,3.50
2018-11-13T11:06:45.911Z,4.00
2018-11-13T11:09:14.060Z,3.63
2018-11-13T11:11:42.292Z,3.27
2018-11-13T11:14:10.453Z,3.23
2018-11-13T11:16:38.570Z,3.07
2018-11-13T11:19:06.715Z,3.37
2018-11-13T11:21:34.810Z,2.90
2018-11-13T11:24:03.058Z,3.10
2018-11-13T11:26:31.123Z,2.60
2018-11-13T11:28:59.270Z,3.13
2018-11-13T11:31:27.341Z,3.10
2018-11-13T11:33:55.484Z,3.20
2018-11-13T11:36:23.571Z,2.97
2018-11-13T11:38:51.881Z,2.83
2018-11-13T11:41:19.918Z,2.97
2018-11-13T11:43:48.012Z,2.87
2018-11-13T11:46:16.149Z,3.70
2018-11-13T11:48:44.225Z,3.30
2018-11-13T11:51:12.311Z,2.87
2018-11-13T11:53:40.393Z,3.43
2018-11-13T11:56:08.480Z,2.97
2018-11-13T11:58:36.697Z,3.13
2018-11-13T12:01:04.914Z,3.77
2018-11-13T12:03:33.016Z,3.37
2018-11-13T12:06:01.137Z,3.30
2018-11-13T12:08:29.230Z,3.40
2018-11-13T12:10:57.526Z,3.33
2018-11-13T12:13:25.677Z,2.57
2018-11-13T12:15:53.834Z,3.07
2018-11-13T12:18:21.954Z,3.63
2018-11-13T12:20:50.099Z,3.77
2018-11-13T12:23:18.254Z,2.57
2018-11-13T12:25:46.486Z,3.57
2018-11-13T12:28:14.607Z,3.83
2018-11-13T12:30:42.772Z,4.23
2018-11-13T12:33:10.855Z,3.33
2018-11-13T12:35:39.031Z,3.63
2018-11-13T12:38:07.116Z,3.50
2018-11-13T12:40:35.225Z,3.37
2018-11-13T12:43:03.363Z,3.83
2018-11-13T12:45:31.642Z,3.27
2018-11-13T12:47:59.803Z,3.70
2018-11-13T12:50:33.304Z,3.93
2018-11-13T12:53:01.410Z,3.50
2018-11-13T12:55:29.536Z,3.70
2018-11-13T12:57:58.146Z,3.87
2018-11-13T13:00:26.652Z,3.53
2018-11-13T13:02:54.806Z,3.37
2018-11-13T13:05:22.909Z,3.67
2018-11-13T13:07:50.988Z,4.33
2018-11-13T13:10:20.153Z,3.50
2018-11-13T13:12:48.236Z,3.67
2018-11-13T13:15:17.325Z,3.40
2018-11-13T13:17:46.011Z,3.63
2018-11-13T13:20:15.817Z,3.80
2018-11-13T13:22:44.841Z,3.30
2018-11-13T13:25:14.124Z,3.30
2018-11-13T13:27:42.334Z,3.80
2018-11-13T13:30:11.926Z,3.57
2018-11-13T13:32:40.005Z,3.87
2018-11-13T13:35:13.779Z,3.93
2018-11-13T13:37:41.866Z,3.47
2018-11-13T13:40:10.039Z,3.30
2018-11-13T13:42:38.153Z,4.70
2018-11-13T13:45:06.266Z,4.00
2018-11-13T13:47:34.352Z,3.87
2018-11-13T13:50:02.546Z,3.23
2018-11-13T13:52:30.719Z,3.70
2018-11-13T13:54:58.801Z,4.00
2018-11-13T13:57:26.931Z,3.97
2018-11-13T13:59:55.341Z,3.53
2018-11-13T14:02:23.163Z,3.87
2018-11-13T14:04:51.264Z,3.37
2018-11-13T14:07:19.371Z,3.33
2018-11-13T14:09:47.490Z,3.47
2018-11-13T14:12:15.581Z,3.43
2018-11-13T14:14:44.532Z,3.40
2018-11-13T14:17:12.728Z,4.27
2018-11-13T14:19:40.827Z,3.43
2018-11-13T14:22:08.971Z,3.63
2018-11-13T14:24:37.088Z,3.20
2018-11-13T14:27:05.240Z,3.33
2018-11-13T14:29:33.410Z,4.43
2018-11-13T14:32:01.582Z,3.73
2018-11-13T14:34:29.677Z,3.73
2018-11-13T14:36:57.843Z,3.37
2018-11-13T14:39:25.947Z,3.73
2018-11-13T14:41:54.873Z,3.83
2018-11-13T14:44:23.087Z,4.07
2018-11-13T14:46:51.255Z,4.40
2018-11-13T14:49:19.362Z,3.83
2018-11-13T14:51:47.532Z,3.60
2018-11-13T14:54:15.704Z,4.50
2018-11-13T14:56:44.163Z,3.77
2018-11-13T14:59:12.350Z,4.27
2018-11-13T15:01:40.524Z,4.17
2018-11-13T15:04:09.309Z,3.70
2018-11-13T15:06:37.447Z,4.23
2018-11-13T15:09:06.472Z,4.33
2018-11-13T15:11:34.712Z,4.43
2018-11-13T15:14:03.028Z,3.80
2018-11-13T15:16:31.165Z,4.03
2018-11-13T15:18:59.373Z,3.20
2018-11-13T15:21:27.487Z,4.00
2018-11-13T15:23:55.591Z,4.20
2018-11-13T15:26:26.124Z,3.50
2018-11-13T15:28:54.288Z,4.17
2018-11-13T15:31:24.065Z,3.93
2018-11-13T15:33:52.164Z,4.57
2018-11-13T15:36:20.272Z,3.83
2018-11-13T15:38:48.391Z,3.80
2018-11-13T15:41:16.499Z,4.10
2018-11-13T15:43:44.600Z,3.77
2018-11-13T15:46:12.746Z,5.27
2018-11-13T15:48:40.911Z,4.13
2018-11-13T15:51:09.245Z,3.57
2018-11-13T15:53:37.259Z,4.20
2018-11-13T15:56:05.454Z,4.80
2018-11-13T15:58:33.692Z,3.93
2018-11-13T16:01:01.771Z,4.77
2018-11-13T16:03:34.370Z,3.90
2018-11-13T16:06:02.517Z,3.97
2018-11-13T16:08:30.597Z,4.03
2018-11-13T16:10:58.687Z,4.17
2018-11-13T16:13:26.770Z,3.57
2018-11-13T16:15:54.902Z,3.30
2018-11-13T16:18:24.581Z,4.33
2018-11-13T16:20:52.674Z,4.20
2018-11-13T16:23:20.800Z,3.80
2018-11-13T16:25:48.937Z,3.93
2018-11-13T16:28:17.053Z,3.53
2018-11-13T16:30:45.422Z,4.47
2018-11-13T16:33:13.362Z,5.30
2018-11-13T16:35:41.452Z,4.00
2018-11-13T16:38:10.828Z,5.07
2018-11-13T16:40:40.910Z,4.17
2018-11-13T16:43:07.086Z,4.03
2018-11-13T16:45:35.487Z,4.23
2018-11-13T16:48:04.442Z,5.30
2018-11-13T16:50:37.851Z,4.07
2018-11-13T16:53:06.160Z,4.47
2018-11-13T16:55:39.738Z,4.07
2018-11-13T16:58:09.643Z,5.07
2018-11-13T17:00:37.923Z,4.20
2018-11-13T17:03:05.987Z,4.87
2018-11-13T17:05:34.182Z,4.80
2018-11-13T17:08:02.209Z,5.07
2018-11-13T17:10:31.327Z,4.50
2018-11-13T17:13:00.207Z,5.50
2018-11-13T17:15:29.544Z,4.93
2018-11-13T17:17:58.912Z,5.40
2018-11-13T17:20:27.062Z,4.47
2018-11-13T17:22:55.097Z,5.00
2018-11-13T17:25:24.774Z,5.40
2018-11-13T17:27:53.777Z,4.87
2018-11-13T17:30:26.366Z,5.97
2018-11-13T17:32:54.977Z,5.30
2018-11-13T17:35:24.270Z,5.07
2018-11-13T17:37:53.314Z,5.20
2018-11-13T17:40:23.584Z,4.83
2018-11-13T17:42:52.942Z,4.80
2018-11-13T17:45:28.951Z,5.83
2018-11-13T17:47:57.279Z,4.70
2018-11-13T17:50:26.711Z,5.03
2018-11-13T17:52:54.915Z,4.93
2018-11-13T17:55:23.561Z,4.80
2018-11-13T17:57:53.159Z,4.50
2018-11-13T18:00:31.419Z,4.60
2018-11-13T18:02:59.976Z,6.47
2018-11-13T18:05:28.636Z,4.93
2018-11-13T18:07:57.842Z,5.00
2018-11-13T18:10:26.723Z,4.57
2018-11-13T18:12:54.870Z,4.93
2018-11-13T18:15:24.420Z,5.17
2018-11-13T18:17:52.515Z,4.83
2018-11-13T18:20:25.039Z,5.13
2018-11-13T18:22:54.136Z,4.63
2018-11-13T18:25:22.218Z,4.90
2018-11-13T18:27:51.756Z,4.80
2018-11-13T18:30:21.610Z,4.63
2018-11-13T18:32:50.472Z,5.57
2018-11-13T18:35:21.309Z,5.03
2018-11-13T18:37:50.608Z,5.07
2018-11-13T18:40:19.915Z,4.70
2018-11-13T18:42:48.873Z,5.40
2018-11-13T18:45:19.109Z,5.20
2018-11-13T18:47:47.256Z,4.73
2018-11-13T18:50:17.043Z,4.97
2018-11-13T18:52:45.388Z,5.33
2018-11-13T18:55:14.135Z,5.00
2018-11-13T18:57:42.627Z,5.23
2018-11-13T19:00:15.128Z,5.60
2018-11-13T19:02:43.525Z,6.20
2018-11-13T19:05:13.000Z,5.80
2018-11-13T19:07:41.932Z,5.63
2018-11-13T19:10:11.112Z,6.00
2018-11-13T19:12:39.953Z,5.90
2018-11-13T19:15:09.030Z,6.53
2018-11-13T19:17:37.894Z,5.97
2018-11-13T19:20:07.922Z,6.30
2018-11-13T19:22:35.944Z,6.63
2018-11-13T19:25:04.256Z,6.10
2018-11-13T19:27:32.546Z,7.20
2018-11-13T19:30:00.771Z,6.73
2018-11-13T19:32:28.917Z,6.43
2018-11-13T19:34:57.065Z,7.53
2018-11-13T19:37:25.498Z,7.47
2018-11-13T19:39:53.727Z,6.20
2018-11-13T19:42:21.807Z,7.73
2018-11-13T19:44:50.038Z,7.53
2018-11-13T19:47:18.015Z,7.67
2018-11-13T19:49:46.199Z,6.63
2018-11-13T19:52:14.335Z,7.47
2018-11-13T19:54:42.502Z,7.97
2018-11-13T19:57:10.686Z,7.03
2018-11-13T19:59:38.797Z,8.03
2018-11-13T20:02:06.908Z,6.60
2018-11-13T20:04:35.101Z,8.03
2018-11-13T20:07:03.192Z,7.63
2018-11-13T20:09:31.328Z,7.57
2018-11-13T20:11:59.459Z,7.67
2018-11-13T20:14:27.575Z,7.53
2018-11-13T20:16:55.775Z,8.70
2018-11-13T20:19:24.065Z,8.23
2018-11-13T20:21:52.222Z,7.77
2018-11-13T20:24:20.394Z,9.00
2018-11-13T20:26:48.606Z,9.20
2018-11-13T20:29:17.016Z,9.53
2018-11-13T20:31:45.106Z,10.17
2018-11-13T20:34:13.344Z,8.90
2018-11-13T20:36:41.474Z,7.67
2018-11-13T20:39:10.884Z,8.70
2018-11-13T20:41:39.021Z,8.73
2018-11-13T20:44:07.127Z,9.00
2018-11-13T20:46:35.478Z,8.37
2018-11-13T20:49:03.692Z,9.33
2018-11-13T20:51:31.889Z,8.93
2018-11-13T20:54:00.111Z,9.50
2018-11-13T20:56:28.316Z,9.03
2018-11-13T20:58:56.439Z,9.23
2018-11-13T21:01:24.618Z,9.73
2018-11-13T21:03:52.736Z,9.83
2018-11-13T21:06:20.967Z,9.60
2018-11-13T21:08:49.263Z,9.47
2018-11-13T21:11:17.242Z,9.73
2018-11-13T21:13:45.400Z,10.87
2018-11-13T21:16:13.678Z,10.67
2018-11-13T21:18:41.846Z,10.37
2018-11-13T21:21:10.062Z,9.57
2018-11-13T21:23:38.270Z,10.23
2018-11-13T21:26:06.313Z,10.07
2018-11-13T21:28:34.451Z,11.13
2018-11-13T21:31:02.635Z,11.03
2018-11-13T21:33:30.775Z,10.03
2018-11-13T21:35:58.875Z,10.63
2018-11-13T21:38:26.966Z,11.53
2018-11-13T21:40:55.095Z,10.00
2018-11-13T21:43:23.222Z,11.30
2018-11-13T21:45:51.291Z,10.40
2018-11-13T21:48:19.976Z,10.87
2018-11-13T21:50:48.079Z,10.37
2018-11-13T21:53:16.188Z,11.83
2018-11-13T21:55:44.404Z,11.43
2018-11-13T21:58:12.461Z,11.20
2018-11-13T22:00:40.537Z,12.00
2018-11-13T22:03:09.168Z,11.17
2018-11-13T22:05:37.580Z,11.57
2018-11-13T22:08:05.993Z,10.93
2018-11-13T22:10:34.123Z,11.67
2018-11-13T22:13:02.238Z,10.87
2018-11-13T22:15:30.879Z,11.43
2018-11-13T22:17:59.702Z,12.10
2018-11-13T22:20:27.538Z,11.80
2018-11-13T22:22:56.349Z,11.40
2018-11-13T22:25:25.198Z,12.60
2018-11-13T22:27:54.610Z,12.43
2018-11-13T22:30:24.016Z,12.50
2018-11-13T22:32:52.384Z,12.03
2018-11-13T22:35:21.354Z,13.00
2018-11-13T22:37:49.502Z,12.57
2018-11-13T22:40:19.015Z,12.57
2018-11-13T22:42:47.439Z,13.60
2018-11-13T22:45:17.251Z,12.73
2018-11-13T22:47:45.362Z,13.60
2018-11-13T22:50:16.310Z,12.63
2018-11-13T22:52:44.924Z,13.57
2018-11-13T22:55:13.699Z,13.80
2018-11-13T22:57:42.840Z,13.80
2018-11-13T23:00:18.604Z,14.77
2018-11-13T23:02:47.935Z,12.87
2018-11-13T23:05:16.164Z,14.50
2018-11-13T23:07:44.327Z,13.77
2018-11-13T23:10:13.499Z,13.87
2018-11-13T23:12:42.289Z,14.93
2018-11-13T23:15:12.641Z,14.67
2018-11-13T23:17:41.794Z,14.67
2018-11-13T23:20:11.630Z,14.30
2018-11-13T23:22:39.879Z,14.87
2018-11-13T23:25:09.390Z,14.43
2018-11-13T23:27:37.482Z,14.20
2018-11-13T23:30:07.302Z,13.17
2018-11-13T23:32:35.440Z,13.80
2018-11-13T23:35:03.708Z,13.73
2018-11-13T23:37:31.736Z,14.87
2018-11-13T23:39:59.863Z,14.10
2018-11-13T23:42:27.938Z,13.73
2018-11-13T23:44:56.026Z,14.57
2018-11-13T23:47:24.125Z,14.17
2018-11-13T23:49:52.236Z,13.67
2018-11-13T23:52:20.350Z,13.57
2018-11-13T23:54:48.520Z,13.47
2018-11-13T23:57:16.686Z,13.40
2018-11-13T23:59:44.776Z,13.47
